Time;durP1;ratioP1;P1;durP2;ratioP2;P2;SDS_P1;SDS_P2;PMS_P1;PMS_P2;Temp;Humidity;BMP_temperature;BMP_pressure;BME280_temperature;BME280_humidity;BME280_pressure;Samples;Min_cycle;Max_cycle;Signal;HPM_P1;HPM_P2
2022/04/27 00:01:23;;;;;;;21.52;8.75;;;;;;;4.74;99.13;102612.78;4977176;28;20054;-73
2022/04/27 00:03:51;;;;;;;29.15;9.18;;;;;;;4.68;100.00;102610.69;4980943;28;20784;-74
2022/04/27 00:06:20;;;;;;;22.55;8.52;;;;;;;4.68;100.00;102602.88;4982282;28;20064;-74
2022/04/27 00:08:54;;;;;;;23.17;9.00;;;;;;;4.72;99.92;102601.38;4981973;28;20050;-73
2022/04/27 00:11:24;;;;;;;23.13;9.27;;;;;;;4.68;99.31;102605.47;4987834;28;20487;-72
2022/04/27 00:13:54;;;;;;;25.35;10.23;;;;;;;4.67;99.68;102603.69;4979557;28;20104;-73
2022/04/27 00:16:23;;;;;;;25.42;8.93;;;;;;;4.61;98.87;102603.28;4981199;28;20457;-73
2022/04/27 00:18:54;;;;;;;16.90;8.20;;;;;;;4.55;98.99;102602.88;4984842;28;20049;-72
2022/04/27 00:21:29;;;;;;;18.70;8.18;;;;;;;4.50;99.39;102601.69;4977865;28;20133;-72
2022/04/27 00:24:00;;;;;;;22.30;8.25;;;;;;;4.46;99.18;102595.38;4976667;28;20549;-74
2022/04/27 00:26:29;;;;;;;20.38;8.45;;;;;;;4.41;99.40;102601.06;4982253;28;20116;-72
2022/04/27 00:28:58;;;;;;;21.55;8.95;;;;;;;4.39;100.00;102607.88;4983080;28;20236;-73
2022/04/27 00:31:31;;;;;;;23.88;8.93;;;;;;;4.34;100.00;102601.47;4979966;28;20223;-72
2022/04/27 00:34:01;;;;;;;23.35;9.65;;;;;;;4.32;100.00;102608.25;4979035;28;20157;-72
2022/04/27 00:36:31;;;;;;;23.02;9.95;;;;;;;4.37;100.00;102602.56;4980454;28;20078;-72
2022/04/27 00:38:59;;;;;;;21.10;8.88;;;;;;;4.37;100.00;102609.47;4977923;28;20046;-71
2022/04/27 00:41:27;;;;;;;24.05;8.30;;;;;;;4.34;100.00;102611.84;4980559;28;20100;-73
2022/04/27 00:43:56;;;;;;;22.05;9.23;;;;;;;4.38;100.00;102608.66;4981402;28;20073;-73
2022/04/27 00:46:26;;;;;;;23.05;9.60;;;;;;;4.32;100.00;102609.16;4982796;28;20450;-72
2022/04/27 00:48:58;;;;;;;21.65;9.73;;;;;;;4.24;100.00;102616.44;4982167;28;20065;-73
2022/04/27 00:51:29;;;;;;;22.73;9.05;;;;;;;4.20;100.00;102609.25;4982242;28;20122;-73
2022/04/27 00:54:00;;;;;;;23.88;9.60;;;;;;;4.28;100.00;102613.25;4981895;28;20050;-73
2022/04/27 00:56:28;;;;;;;20.13;9.10;;;;;;;4.17;100.00;102614.22;4982199;28;20042;-73
2022/04/27 00:58:56;;;;;;;23.55;9.25;;;;;;;4.14;100.00;102619.25;4982477;28;20130;-71
2022/04/27 01:01:25;;;;;;;23.83;9.57;;;;;;;4.09;100.00;102625.81;4984057;28;20862;-73
2022/04/27 01:03:57;;;;;;;23.60;9.60;;;;;;;4.05;100.00;102620.31;4983214;28;20177;-72
2022/04/27 01:06:32;;;;;;;24.08;11.38;;;;;;;4.04;100.00;102610.72;4977518;28;20596;-72
2022/04/27 01:09:00;;;;;;;25.25;9.90;;;;;;;4.10;100.00;102617.25;4980843;28;20046;-72
2022/04/27 01:11:28;;;;;;;24.77;9.98;;;;;;;4.08;100.00;102613.63;4981191;28;20070;-73
2022/04/27 01:14:00;;;;;;;26.45;9.05;;;;;;;4.08;100.00;102617.94;4983338;28;20062;-72
2022/04/27 01:16:28;;;;;;;24.45;10.35;;;;;;;4.04;100.00;102622.00;4982724;28;20051;-72
2022/04/27 01:18:58;;;;;;;23.38;8.85;;;;;;;3.99;100.00;102618.22;4974983;28;20058;-72
2022/04/27 01:21:30;;;;;;;27.52;10.55;;;;;;;3.96;100.00;102614.50;4977317;28;20046;-73
2022/04/27 01:23:58;;;;;;;21.60;8.00;;;;;;;3.90;100.00;102617.56;4982572;28;20496;-73
2022/04/27 01:26:29;;;;;;;24.60;9.55;;;;;;;3.84;100.00;102617.16;4978225;28;20130;-72
2022/04/27 01:28:58;;;;;;;19.02;8.23;;;;;;;3.80;100.00;102620.34;4981788;28;20046;-74
2022/04/27 01:31:26;;;;;;;22.40;9.05;;;;;;;3.77;100.00;102623.63;4982537;28;20101;-72
2022/04/27 01:33:55;;;;;;;24.05;9.93;;;;;;;3.73;100.00;102616.41;4979722;28;20064;-72
2022/04/27 01:36:24;;;;;;;19.20;8.65;;;;;;;3.77;100.00;102617.53;4982822;28;20200;-73
2022/04/27 01:38:57;;;;;;;21.75;8.55;;;;;;;3.74;100.00;102620.81;4986172;28;20089;-72
2022/04/27 01:41:28;;;;;;;21.83;8.93;;;;;;;3.79;100.00;102618.53;4986696;28;20145;-73
2022/04/27 01:43:57;;;;;;;20.15;9.35;;;;;;;3.84;100.00;102625.84;4982019;28;20058;-72
2022/04/27 01:46:27;;;;;;;17.42;8.15;;;;;;;3.82;100.00;102624.84;4987274;28;20104;-72
2022/04/27 01:48:55;;;;;;;21.63;8.52;;;;;;;3.77;100.00;102630.50;5018630;23;20648;-72
2022/04/27 01:54:14;;;;;;;21.60;7.93;;;;;;;3.80;100.00;102630.72;5001370;28;20057;-72
2022/04/27 01:54:15;;;;;;;21.02;8.38;;;;;;;3.90;100.00;102630.56;4997710;28;20057;-72
2022/04/27 01:56:43;;;;;;;20.23;8.13;;;;;;;3.94;100.00;102629.97;4998199;28;20378;-72
2022/04/27 01:59:11;;;;;;;22.33;8.98;;;;;;;3.91;100.00;102630.66;5002149;28;20091;-73
2022/04/27 02:01:39;;;;;;;21.45;8.88;;;;;;;3.88;100.00;102635.66;5005631;28;20531;-73
2022/04/27 02:04:08;;;;;;;19.35;8.90;;;;;;;3.94;100.00;102635.16;5006384;28;20057;-72
2022/04/27 02:06:37;;;;;;;17.70;8.27;;;;;;;3.93;100.00;102635.97;5008698;28;20058;-72
2022/04/27 02:09:07;;;;;;;19.15;8.43;;;;;;;3.97;100.00;102643.16;5004686;28;20050;-73
2022/04/27 02:11:37;;;;;;;22.17;8.63;;;;;;;3.91;100.00;102643.63;5007152;28;20085;-72
2022/04/27 02:14:06;;;;;;;18.58;7.45;;;;;;;3.88;100.00;102647.72;5008172;28;20053;-72
2022/04/27 02:16:34;;;;;;;17.55;8.10;;;;;;;3.99;100.00;102641.56;5007930;28;20409;-72
2022/04/27 02:19:02;;;;;;;15.18;7.10;;;;;;;4.00;100.00;102648.56;5002625;28;20349;-72
2022/04/27 02:21:31;;;;;;;16.33;7.72;;;;;;;3.98;100.00;102651.84;5004485;28;20561;-72
2022/04/27 02:23:59;;;;;;;16.35;8.15;;;;;;;3.97;100.00;102656.16;5002651;28;20050;-71
2022/04/27 02:26:26;;;;;;;18.45;7.97;;;;;;;4.05;100.00;102659.25;5007111;28;20056;-73
2022/04/27 02:28:56;;;;;;;15.50;6.93;;;;;;;4.05;100.00;102649.78;5003209;28;20717;-72
2022/04/27 02:31:24;;;;;;;16.38;8.20;;;;;;;4.09;100.00;102656.97;5005059;28;20081;-73
2022/04/27 02:33:52;;;;;;;16.33;7.50;;;;;;;4.14;100.00;102650.41;5005903;28;20610;-72
2022/04/27 02:36:21;;;;;;;15.50;7.00;;;;;;;4.16;100.00;102653.97;5005223;28;20054;-71
2022/04/27 02:38:49;;;;;;;19.05;7.97;;;;;;;4.12;100.00;102658.88;5006201;28;20050;-72
2022/04/27 02:41:17;;;;;;;13.15;6.97;;;;;;;4.09;100.00;102654.38;5002946;28;20053;-72
2022/04/27 02:43:45;;;;;;;15.38;7.50;;;;;;;4.16;100.00;102659.16;5004539;28;20054;-72
2022/04/27 02:46:15;;;;;;;14.63;7.28;;;;;;;4.14;100.00;102655.59;5005996;28;20054;-72
2022/04/27 02:51:48;;;;;;;15.18;7.30;;;;;;;4.11;100.00;102662.28;5007378;28;20231;-72
2022/04/27 02:51:49;;;;;;;12.73;5.95;;;;;;;4.06;100.00;102661.97;5002335;28;20290;-73
2022/04/27 02:54:17;;;;;;;14.63;6.45;;;;;;;4.04;100.00;102660.97;5002488;28;20054;-73
2022/04/27 02:56:48;;;;;;;14.73;7.43;;;;;;;4.03;100.00;102656.56;5005065;28;20136;-73
2022/04/27 02:59:19;;;;;;;19.67;6.93;;;;;;;4.02;100.00;102664.25;5006293;28;20054;-73
2022/04/27 03:01:49;;;;;;;14.50;6.72;;;;;;;4.01;100.00;102658.16;5008514;28;20091;-72
2022/04/27 03:04:17;;;;;;;15.30;7.63;;;;;;;3.99;100.00;102664.94;5001495;28;20046;-72
2022/04/27 03:06:46;;;;;;;13.82;6.57;;;;;;;3.97;100.00;102656.16;5004702;28;20092;-73
2022/04/27 03:09:14;;;;;;;13.98;6.60;;;;;;;4.02;100.00;102654.75;5005335;28;20096;-73
2022/04/27 03:11:42;;;;;;;16.17;7.07;;;;;;;3.98;100.00;102652.75;5006281;28;20081;-72
2022/04/27 03:14:10;;;;;;;15.63;7.43;;;;;;;4.00;100.00;102658.03;5005083;28;20136;-72
2022/04/27 03:16:38;;;;;;;12.38;7.00;;;;;;;4.01;100.00;102658.16;5006917;28;20088;-73
2022/04/27 03:19:09;;;;;;;15.10;7.07;;;;;;;3.96;100.00;102659.53;5002715;28;20137;-73
2022/04/27 03:21:37;;;;;;;13.80;6.65;;;;;;;3.94;100.00;102655.94;5001267;28;20058;-72
2022/04/27 03:24:06;;;;;;;17.40;7.95;;;;;;;3.88;100.00;102660.69;5005918;28;20061;-72
2022/04/27 03:26:33;;;;;;;17.15;7.82;;;;;;;3.86;100.00;102662.28;5006588;28;20540;-71
2022/04/27 03:29:01;;;;;;;14.30;7.05;;;;;;;3.81;100.00;102666.25;5006278;28;20061;-72
2022/04/27 03:31:29;;;;;;;15.68;7.28;;;;;;;3.81;100.00;102663.66;5003337;28;20552;-73
2022/04/27 03:33:57;;;;;;;14.65;6.70;;;;;;;3.86;100.00;102660.59;5005622;28;20526;-73
2022/04/27 03:36:27;;;;;;;14.23;8.27;;;;;;;3.86;100.00;102662.28;5005667;28;20092;-73
2022/04/27 03:38:55;;;;;;;15.38;7.55;;;;;;;3.86;100.00;102665.78;5004021;28;20486;-73
2022/04/27 03:41:23;;;;;;;16.25;7.43;;;;;;;3.83;100.00;102667.25;5005735;28;20053;-72
2022/04/27 03:43:51;;;;;;;14.27;7.28;;;;;;;3.79;100.00;102663.56;5002452;28;20081;-72
2022/04/27 03:46:21;;;;;;;18.17;8.60;;;;;;;3.77;100.00;102662.56;5005180;28;20487;-72
2022/04/27 03:49:09;;;;;;;15.02;7.18;;;;;;;3.79;100.00;102660.06;5005433;28;20187;-73
2022/04/27 03:51:39;;;;;;;16.00;8.27;;;;;;;3.75;100.00;102661.53;5003951;28;20050;-73
2022/04/27 03:54:07;;;;;;;15.45;7.85;;;;;;;3.77;100.00;102656.47;5000750;28;20058;-72
2022/04/27 03:56:38;;;;;;;15.52;7.53;;;;;;;3.74;100.00;102654.56;5004697;28;20669;-73
2022/04/27 03:59:05;;;;;;;15.55;7.05;;;;;;;3.71;100.00;102653.44;5005979;28;20069;-73
2022/04/27 04:01:33;;;;;;;19.08;7.80;;;;;;;3.73;100.00;102659.63;4999791;28;20277;-72
2022/04/27 04:04:01;;;;;;;18.00;8.55;;;;;;;3.62;100.00;102658.88;5008662;28;20145;-75
2022/04/27 04:06:29;;;;;;;17.60;8.52;;;;;;;3.65;100.00;102661.69;5012934;28;20049;-72
2022/04/27 04:08:58;;;;;;;16.35;8.23;;;;;;;3.67;100.00;102660.09;5013101;28;20160;-73
2022/04/27 04:11:27;;;;;;;18.15;7.68;;;;;;;3.65;100.00;102665.97;5008725;28;20108;-73
2022/04/27 04:13:55;;;;;;;17.75;8.38;;;;;;;3.65;100.00;102663.38;5008483;28;20488;-73
2022/04/27 04:16:23;;;;;;;19.48;7.95;;;;;;;3.65;100.00;102663.38;5011700;28;20253;-72
2022/04/27 04:18:51;;;;;;;16.10;8.20;;;;;;;3.64;100.00;102664.19;5013426;28;20130;-74
2022/04/27 04:21:19;;;;;;;18.25;8.20;;;;;;;3.63;100.00;102662.38;5010200;28;20185;-73
2022/04/27 04:23:49;;;;;;;16.73;8.98;;;;;;;3.64;100.00;102664.19;5012550;28;20054;-73
2022/04/27 04:29:05;;;;;;;16.50;8.00;;;;;;;3.57;100.00;102676.72;5006687;28;20050;-73
2022/04/27 04:31:33;;;;;;;18.58;8.77;;;;;;;3.64;100.00;102679.75;5005652;28;20042;-73
2022/04/27 04:34:05;;;;;;;22.25;9.77;;;;;;;3.65;100.00;102677.25;5004189;28;20046;-73
2022/04/27 04:36:33;;;;;;;16.48;7.82;;;;;;;3.66;100.00;102689.44;5004430;28;20042;-72
2022/04/27 04:39:01;;;;;;;19.00;8.48;;;;;;;3.73;100.00;102690.78;5005568;28;20108;-73
2022/04/27 04:41:30;;;;;;;19.10;8.38;;;;;;;3.80;100.00;102693.91;5003907;28;20046;-73
2022/04/27 04:43:58;;;;;;;18.73;8.88;;;;;;;3.89;100.00;102696.25;5006065;28;20053;-72
2022/04/27 04:46:28;;;;;;;19.65;8.25;;;;;;;3.93;100.00;102700.84;5004031;28;20145;-72
2022/04/27 04:48:56;;;;;;;19.02;8.65;;;;;;;3.99;100.00;102705.56;5003828;28;20046;-72
2022/04/27 04:51:24;;;;;;;18.70;8.40;;;;;;;4.09;100.00;102711.50;5004936;28;20041;-73
2022/04/27 04:54:03;;;;;;;20.38;9.45;;;;;;;4.19;100.00;102713.00;4996378;28;20049;-74
2022/04/27 04:56:32;;;;;;;18.85;8.80;;;;;;;4.35;100.00;102707.16;5003640;28;20085;-73
2022/04/27 04:59:00;;;;;;;20.65;9.50;;;;;;;4.46;100.00;102716.59;5005037;28;20108;-72
2022/04/27 05:01:28;;;;;;;18.38;9.82;;;;;;;4.57;100.00;102716.53;5003469;28;20136;-72
2022/04/27 05:03:56;;;;;;;20.05;9.82;;;;;;;4.70;100.00;102719.94;5003222;28;20064;-73
2022/04/27 05:06:27;;;;;;;23.08;10.38;;;;;;;4.82;100.00;102715.56;5003149;28;20096;-72
2022/04/27 05:08:55;;;;;;;19.85;8.60;;;;;;;4.96;100.00;102716.47;5006030;28;20077;-74
2022/04/27 05:11:23;;;;;;;18.98;9.48;;;;;;;5.06;100.00;102721.47;4999745;28;20049;-73
2022/04/27 05:13:52;;;;;;;16.67;8.45;;;;;;;5.18;100.00;102722.28;5003855;28;20128;-73
2022/04/27 05:16:20;;;;;;;20.63;9.15;;;;;;;5.33;100.00;102728.44;5000268;28;20092;-73
2022/04/27 05:18:48;;;;;;;23.27;11.13;;;;;;;5.45;100.00;102723.13;5001158;28;20065;-73
2022/04/27 05:21:16;;;;;;;21.25;10.05;;;;;;;5.59;100.00;102731.00;5004718;28;20045;-73
2022/04/27 05:23:44;;;;;;;20.95;9.40;;;;;;;5.71;100.00;102732.59;5005860;28;20053;-72
2022/04/27 05:26:12;;;;;;;21.75;8.90;;;;;;;5.80;100.00;102727.94;4996957;28;20046;-73
2022/04/27 05:34:11;;;;;;;20.42;9.23;;;;;;;6.07;100.00;102737.50;5003071;28;20273;-73
2022/04/27 05:36:39;;;;;;;16.77;9.27;;;;;;;6.14;100.00;102744.91;5004917;28;20064;-72
2022/04/27 05:39:07;;;;;;;20.92;10.52;;;;;;;6.24;100.00;102751.53;5005945;28;20077;-73
2022/04/27 05:41:35;;;;;;;17.92;9.05;;;;;;;6.33;100.00;102740.78;5009418;28;20054;-73
2022/04/27 05:44:03;;;;;;;19.65;9.10;;;;;;;6.41;100.00;102750.84;5009836;28;20545;-72
2022/04/27 05:46:32;;;;;;;19.60;9.48;;;;;;;6.49;100.00;102748.72;5004636;28;20521;-73
2022/04/27 05:49:00;;;;;;;22.92;10.48;;;;;;;6.58;100.00;102754.47;5006762;28;20475;-73
2022/04/27 05:51:29;;;;;;;21.98;10.95;;;;;;;6.67;100.00;102755.03;5008628;28;20081;-73
2022/04/27 05:53:57;;;;;;;18.83;9.73;;;;;;;6.75;100.00;102756.38;5003696;28;20157;-73
2022/04/27 05:56:25;;;;;;;22.33;9.63;;;;;;;6.84;100.00;102759.53;5008084;28;20145;-73
2022/04/27 05:58:53;;;;;;;22.02;10.07;;;;;;;6.89;100.00;102758.09;5005570;28;20054;-73
2022/04/27 06:01:23;;;;;;;16.95;9.13;;;;;;;6.97;100.00;102757.66;5007621;28;20367;-73
2022/04/27 06:03:53;;;;;;;21.17;9.60;;;;;;;7.02;100.00;102770.16;5006392;28;20061;-73
2022/04/27 06:06:23;;;;;;;21.85;9.88;;;;;;;7.09;100.00;102760.97;5004218;28;20140;-73
2022/04/27 06:08:54;;;;;;;19.70;8.88;;;;;;;7.17;100.00;102768.44;5007127;28;20052;-73
2022/04/27 06:11:22;;;;;;;16.23;7.82;;;;;;;7.23;100.00;102767.88;5007959;28;20046;-73
2022/04/27 06:13:50;;;;;;;17.27;8.85;;;;;;;7.28;100.00;102768.16;5008212;28;20046;-74
2022/04/27 06:16:22;;;;;;;17.45;8.40;;;;;;;7.35;100.00;102765.94;5007992;28;20060;-75
2022/04/27 06:18:50;;;;;;;15.05;7.72;;;;;;;7.42;100.00;102773.31;5007694;28;20265;-73
2022/04/27 06:21:19;;;;;;;16.33;8.10;;;;;;;7.53;100.00;102772.19;5008263;28;20136;-73
2022/04/27 06:23:48;;;;;;;18.45;8.80;;;;;;;7.61;100.00;102775.25;5004378;28;20057;-74
2022/04/27 06:26:18;;;;;;;17.10;7.30;;;;;;;7.69;100.00;102773.97;5007032;28;20110;-74
2022/04/27 06:28:49;;;;;;;17.80;8.02;;;;;;;7.81;100.00;102773.75;5006894;28;20065;-74
2022/04/27 06:31:17;;;;;;;16.10;7.68;;;;;;;7.73;98.57;102777.63;5008190;28;20175;-73
2022/04/27 06:33:48;;;;;;;17.83;7.80;;;;;;;7.83;99.60;102777.34;5007849;28;20406;-73
2022/04/27 06:36:17;;;;;;;15.02;7.38;;;;;;;7.86;97.85;102783.63;5010131;28;20452;-75
2022/04/27 06:38:47;;;;;;;14.63;7.53;;;;;;;7.91;98.05;102786.50;5009686;28;20616;-73
2022/04/27 06:41:21;;;;;;;17.83;7.97;;;;;;;8.01;97.52;102780.97;5008326;28;20056;-72
2022/04/27 06:43:49;;;;;;;15.77;7.10;;;;;;;8.04;96.54;102777.63;5009076;28;20069;-74
2022/04/27 06:46:17;;;;;;;16.92;7.13;;;;;;;8.16;96.48;102779.19;5009076;28;20050;-74
2022/04/27 06:48:46;;;;;;;15.18;7.22;;;;;;;8.23;94.60;102782.13;5003477;28;20081;-73
2022/04/27 06:51:18;;;;;;;15.65;7.18;;;;;;;8.30;94.33;102781.63;5006093;28;20077;-74
2022/04/27 06:53:52;;;;;;;12.98;5.70;;;;;;;8.35;92.81;102786.28;5004250;28;20046;-73
2022/04/27 06:56:22;;;;;;;16.60;6.55;;;;;;;8.50;93.70;102791.44;5007122;28;20323;-74
2022/04/27 06:58:51;;;;;;;14.93;6.70;;;;;;;8.52;91.18;102790.69;5003822;28;20057;-75
2022/04/27 07:01:20;;;;;;;12.02;5.68;;;;;;;8.67;92.24;102795.81;5007589;28;20050;-72
2022/04/27 07:03:54;;;;;;;11.50;5.53;;;;;;;8.77;91.78;102803.34;5007172;28;20058;-73
2022/04/27 07:06:22;;;;;;;12.40;6.57;;;;;;;8.83;90.10;102798.41;5002495;28;20125;-73
2022/04/27 07:09:01;;;;;;;11.48;4.90;;;;;;;8.98;91.87;102800.03;5009007;28;20077;-74
2022/04/27 07:11:29;;;;;;;10.10;4.90;;;;;;;8.96;87.63;102799.03;5005133;28;20131;-73
2022/04/27 07:13:56;;;;;;;9.27;5.13;;;;;;;8.98;86.70;102798.31;5012122;28;20078;-72
2022/04/27 07:16:24;;;;;;;9.27;4.13;;;;;;;9.07;86.39;102810.97;5012001;28;20054;-74
2022/04/27 07:18:53;;;;;;;9.32;4.47;;;;;;;9.04;83.20;102810.81;5011104;28;20052;-74
2022/04/27 07:21:21;;;;;;;9.20;3.92;;;;;;;9.07;82.30;102814.47;5011270;28;20293;-73
2022/04/27 07:23:50;;;;;;;9.02;4.57;;;;;;;9.15;82.36;102814.88;5012852;28;20076;-74
2022/04/27 07:26:20;;;;;;;10.60;4.63;;;;;;;9.25;83.02;102827.59;5012746;28;20050;-74
2022/04/27 07:28:48;;;;;;;9.75;4.03;;;;;;;9.37;83.88;102822.03;5008158;28;20046;-74
2022/04/27 07:31:16;;;;;;;7.88;4.00;;;;;;;9.40;80.73;102822.19;5013125;28;20052;-73
2022/04/27 07:33:44;;;;;;;8.45;3.60;;;;;;;9.37;79.11;102825.56;5012308;28;20049;-72
2022/04/27 07:36:13;;;;;;;8.48;3.92;;;;;;;9.35;78.46;102837.72;5007486;28;20259;-74
2022/04/27 07:38:41;;;;;;;9.52;4.32;;;;;;;9.45;79.29;102834.69;5010475;28;20077;-73
2022/04/27 07:41:09;;;;;;;9.55;4.28;;;;;;;9.48;79.34;102840.06;5006432;28;20226;-73
2022/04/27 07:43:38;;;;;;;9.40;4.88;;;;;;;9.48;79.08;102842.69;5004547;28;20093;-73
2022/04/27 07:46:09;;;;;;;9.18;4.22;;;;;;;9.59;79.80;102842.31;5004902;28;20054;-74
2022/04/27 07:48:37;;;;;;;8.75;4.45;;;;;;;9.64;79.45;102836.50;5004977;28;20080;-73
2022/04/27 07:51:06;;;;;;;9.35;4.95;;;;;;;9.63;78.62;102839.94;5004783;28;20050;-73
2022/04/27 07:53:34;;;;;;;11.75;5.43;;;;;;;9.66;79.01;102845.31;5002119;28;20056;-73
2022/04/27 07:56:04;;;;;;;11.90;5.10;;;;;;;9.76;77.50;102837.09;5005185;28;20080;-74
2022/04/27 07:58:32;;;;;;;8.25;3.97;;;;;;;9.90;76.07;102835.13;5003846;28;20092;-73
2022/04/27 08:01:01;;;;;;;5.82;3.15;;;;;;;9.94;71.03;102842.31;5002172;28;20096;-73
2022/04/27 08:03:29;;;;;;;6.32;2.70;;;;;;;10.00;72.50;102836.47;5003547;28;20606;-73
2022/04/27 08:05:57;;;;;;;6.45;3.20;;;;;;;10.07;70.76;102839.44;5001278;28;20069;-73
2022/04/27 08:08:26;;;;;;;8.90;3.47;;;;;;;10.13;70.39;102849.31;5004966;28;20405;-75
2022/04/27 08:10:55;;;;;;;7.28;3.80;;;;;;;10.13;68.30;102849.31;5004265;28;20069;-74
2022/04/27 08:13:23;;;;;;;8.45;3.63;;;;;;;10.16;68.53;102847.75;5004167;28;20092;-75
2022/04/27 08:15:51;;;;;;;7.22;3.33;;;;;;;10.18;64.54;102862.66;5005553;28;20485;-73
2022/04/27 08:18:23;;;;;;;6.57;3.08;;;;;;;10.13;64.32;102852.84;5002991;28;20185;-73
2022/04/27 08:23:40;;;;;;;6.30;3.33;;;;;;;10.15;62.93;102863.41;5002413;28;20069;-73
2022/04/27 08:26:10;;;;;;;6.90;3.10;;;;;;;10.21;66.05;102865.44;5003149;28;20061;-73
2022/04/27 08:28:39;;;;;;;6.25;3.58;;;;;;;10.50;66.19;102857.16;5007371;28;20062;-74
2022/04/27 08:31:09;;;;;;;7.43;3.55;;;;;;;10.66;64.95;102862.28;5001275;28;20064;-76
2022/04/27 08:33:38;;;;;;;8.82;4.55;;;;;;;10.77;63.98;102871.53;5002860;28;20056;-75
2022/04/27 08:36:07;;;;;;;10.52;4.47;;;;;;;10.85;64.90;102868.34;5001928;28;20123;-74
2022/04/27 08:38:55;;;;;;;10.40;4.40;;;;;;;10.79;64.57;102864.63;5001853;28;20049;-74
2022/04/27 08:41:23;;;;;;;9.65;4.80;;;;;;;11.00;63.76;102869.03;4999354;28;20807;-72
2022/04/27 08:43:51;;;;;;;10.00;4.85;;;;;;;11.23;64.56;102868.31;5003847;28;20078;-74
2022/04/27 08:46:19;;;;;;;7.88;4.18;;;;;;;11.28;62.75;102869.41;5004618;28;20049;-74
2022/04/27 08:48:49;;;;;;;6.85;3.72;;;;;;;11.26;60.11;102871.06;5003187;28;20139;-72
2022/04/27 08:51:23;;;;;;;5.63;3.65;;;;;;;11.42;59.25;102870.88;5021075;28;20046;-74
2022/04/27 08:53:53;;;;;;;;;;;;;;;11.61;59.51;102871.63;5002456;28;20380;-73
2022/04/27 08:56:23;;;;;;;6.15;3.60;;;;;;;11.60;57.14;102873.34;5000157;28;19926;-74
2022/04/27 08:58:51;;;;;;;8.18;4.13;;;;;;;11.52;57.29;102877.38;5002243;28;20502;-73
2022/04/27 09:01:19;;;;;;;6.88;3.60;;;;;;;11.65;58.22;102886.69;5005036;28;20049;-73
2022/04/27 09:03:50;;;;;;;10.57;4.35;;;;;;;11.37;56.87;102887.28;5003752;28;20100;-74
2022/04/27 09:06:20;;;;;;;9.57;4.15;;;;;;;11.27;57.11;102888.63;5007623;28;20061;-72
2022/04/27 09:08:50;;;;;;;9.95;4.88;;;;;;;11.10;57.60;102889.63;5002241;28;20126;-73
2022/04/27 09:11:20;;;;;;;8.65;4.88;;;;;;;10.91;56.95;102887.91;5001511;28;20104;-73
2022/04/27 09:13:51;;;;;;;9.23;4.25;;;;;;;11.15;57.87;102893.34;5005813;28;20049;-73
2022/04/27 09:16:21;;;;;;;11.57;5.18;;;;;;;11.11;57.38;102887.06;5000777;28;20108;-73
2022/04/27 09:21:59;;;;;;;8.90;4.38;;;;;;;11.19;57.51;102890.00;5003197;28;20050;-74
2022/04/27 09:24:28;;;;;;;8.38;5.07;;;;;;;11.27;57.02;102879.84;5003762;28;20050;-72
2022/04/27 09:27:02;;;;;;;10.15;5.53;;;;;;;10.96;56.74;102896.00;5003190;28;20053;-74
2022/04/27 09:29:30;;;;;;;10.48;5.30;;;;;;;11.02;57.69;102886.66;5005092;28;20050;-73
2022/04/27 09:31:59;;;;;;;8.60;5.05;;;;;;;11.09;57.35;102888.72;5001254;28;20057;-72
2022/04/27 09:34:28;;;;;;;10.00;5.45;;;;;;;11.26;56.79;102892.06;5003549;28;20053;-73
2022/04/27 09:36:58;;;;;;;9.70;5.45;;;;;;;11.30;56.98;102893.09;5000190;28;20083;-74
2022/04/27 09:39:27;;;;;;;10.73;5.40;;;;;;;11.36;56.45;102901.25;5001689;28;20050;-73
2022/04/27 09:42:04;;;;;;;9.15;4.85;;;;;;;11.52;56.04;102900.13;4999196;28;20054;-72
2022/04/27 09:44:33;;;;;;;9.30;5.00;;;;;;;11.25;55.41;102905.16;5000741;28;20501;-73
2022/04/27 09:47:03;;;;;;;8.13;4.95;;;;;;;11.26;56.77;102906.94;5002578;28;20133;-73
2022/04/27 09:49:32;;;;;;;8.70;4.72;;;;;;;11.23;56.61;102912.97;5003377;28;20219;-73
2022/04/27 09:52:02;;;;;;;8.65;5.15;;;;;;;11.23;56.41;102912.06;4999652;28;20454;-73
2022/04/27 09:54:31;;;;;;;9.63;5.38;;;;;;;11.16;56.33;102916.16;5002832;28;20540;-73
2022/04/27 09:57:01;;;;;;;9.15;5.18;;;;;;;11.09;56.14;102914.09;5001342;28;20165;-73
2022/04/27 09:59:31;;;;;;;7.55;3.92;;;;;;;11.31;56.15;102910.66;4999224;28;20076;-73
2022/04/27 10:02:01;;;;;;;7.38;4.10;;;;;;;11.41;55.37;102916.38;5003106;28;20097;-74
2022/04/27 10:04:30;;;;;;;10.30;4.50;;;;;;;11.54;55.44;102908.97;5002693;28;20432;-75
2022/04/27 10:07:02;;;;;;;10.57;5.05;;;;;;;11.60;54.98;102910.13;5001100;28;20081;-75
2022/04/27 10:09:32;;;;;;;8.45;4.60;;;;;;;11.49;54.79;102906.16;5007148;28;20507;-74
2022/04/27 10:12:16;;;;;;;8.55;4.45;;;;;;;11.53;54.53;102910.72;4999783;28;20050;-73
2022/04/27 10:14:45;;;;;;;11.43;4.65;;;;;;;11.38;55.85;102910.09;5003227;28;20762;-74
2022/04/27 10:17:15;;;;;;;7.88;4.22;;;;;;;11.68;55.51;102907.81;5003288;28;20052;-74
2022/04/27 10:19:46;;;;;;;8.27;4.55;;;;;;;11.55;55.51;102902.91;5004682;28;20496;-74
2022/04/27 10:22:30;;;;;;;10.13;5.25;;;;;;;11.53;54.09;102912.44;5001513;28;20165;-75
2022/04/27 10:25:04;;;;;;;9.07;4.25;;;;;;;11.17;55.18;102907.44;5006917;28;20110;-74
2022/04/27 10:27:36;;;;;;;8.07;3.85;;;;;;;11.43;55.42;102906.84;5006510;28;20050;-75
2022/04/27 10:30:07;;;;;;;10.57;4.22;;;;;;;11.66;55.99;102904.25;5007663;28;20088;-72
2022/04/27 10:32:43;;;;;;;11.00;4.25;;;;;;;11.91;55.88;102900.91;5009129;28;20054;-75
2022/04/27 10:35:19;;;;;;;9.23;4.32;;;;;;;11.98;55.26;102903.88;5008711;28;20053;-75
2022/04/27 10:37:53;;;;;;;6.97;3.80;;;;;;;12.18;55.77;102899.41;5008447;28;20072;-74
2022/04/27 10:40:34;;;;;;;8.93;4.35;;;;;;;12.23;54.73;102899.56;5009673;28;20413;-75
2022/04/27 10:43:10;;;;;;;10.20;4.40;;;;;;;12.22;54.22;102903.03;5014063;28;20050;-73
2022/04/27 10:45:39;;;;;;;7.35;3.92;;;;;;;11.60;54.27;102903.97;5012778;28;20053;-73
2022/04/27 10:48:08;;;;;;;8.40;4.00;;;;;;;11.88;55.63;102904.31;5009806;28;20061;-71
2022/04/27 10:50:37;;;;;;;6.78;3.10;;;;;;;11.90;56.30;102905.28;5009831;28;20061;-72
2022/04/27 10:53:20;;;;;;;6.05;3.17;;;;;;;11.50;57.62;102904.44;5023390;28;20100;-74
2022/04/27 10:56:23;;;;;;;7.13;3.25;;;;;;;10.81;59.83;102912.84;5003637;28;20064;-73
2022/04/27 10:58:54;;;;;;;7.53;3.20;;;;;;;10.48;61.50;102909.56;5008313;28;20061;-72
2022/04/27 11:01:29;;;;;;;12.65;3.83;;;;;;;10.47;62.65;102918.28;5007006;28;20094;-72
2022/04/27 11:03:59;;;;;;;8.20;3.38;;;;;;;10.32;63.36;102921.94;5004022;28;20057;-76
2022/04/27 11:06:30;;;;;;;12.88;4.20;;;;;;;10.33;63.87;102918.47;5005763;28;20056;-75
2022/04/27 11:09:10;;;;;;;8.75;3.67;;;;;;;10.28;64.11;102918.25;5001872;28;20127;-76
2022/04/27 11:11:51;;;;;;;8.32;3.38;;;;;;;10.30;63.58;102913.09;5007529;28;20049;-76
2022/04/27 11:14:29;;;;;;;9.15;3.35;;;;;;;10.07;63.72;102919.81;5004166;28;20050;-75
2022/04/27 11:17:00;;;;;;;12.05;4.38;;;;;;;10.11;62.96;102914.81;5003117;28;20104;-76
2022/04/27 11:19:35;;;;;;;9.18;3.80;;;;;;;10.08;62.79;102922.53;5005512;28;20053;-76
2022/04/27 11:22:11;;;;;;;6.95;3.17;;;;;;;10.04;62.57;102924.91;5004039;28;20054;-75
2022/04/27 11:24:42;;;;;;;6.85;3.47;;;;;;;9.98;62.50;102917.66;5001791;28;20099;-76
2022/04/27 11:27:10;;;;;;;8.32;3.40;;;;;;;10.12;62.06;102918.31;4999474;28;20152;-76
2022/04/27 11:29:38;;;;;;;6.75;3.30;;;;;;;9.99;61.84;102924.69;5001600;28;20145;-75
2022/04/27 11:32:09;;;;;;;8.73;3.78;;;;;;;10.00;62.09;102926.50;5003794;28;20133;-77
2022/04/27 11:34:37;;;;;;;8.85;3.55;;;;;;;9.96;61.81;102921.91;5005476;28;20136;-76
2022/04/27 11:37:16;;;;;;;8.10;3.22;;;;;;;10.15;61.83;102921.09;4999718;28;20064;-77
2022/04/27 11:39:49;;;;;;;8.75;3.40;;;;;;;9.96;61.54;102926.28;5002239;28;20042;-76
2022/04/27 11:42:20;;;;;;;7.63;3.53;;;;;;;10.09;61.72;102915.56;5002366;28;20414;-76
2022/04/27 11:44:52;;;;;;;8.07;3.42;;;;;;;10.03;62.23;102918.78;5003969;28;20505;-78
2022/04/27 11:47:31;;;;;;;10.40;3.88;;;;;;;10.28;62.34;102920.88;5001073;28;20057;-77
2022/04/27 11:50:01;;;;;;;12.68;3.90;;;;;;;10.43;61.86;102923.31;5002448;28;20045;-78